CRW weather

Yeager Airport
Charleston, West Virginia, United States

Public forecast

Using degrees Fahrenheit for public forecast. Weather courtesy of forecast.io.

Current aviation weather report (METAR) for Yeager Airport

Retrieved 2020/06/01 23:54 UTC (1 hour ago):

KCRW 012354Z 00000KT 10SM SCT200 21/04 A3020 RMK AO2 SLP222 T02110039 10239 20211 55010

Aviation forecast (TAF) for Yeager Airport

Retrieved 2020-06-02 00:24 UTC (36 minutes ago):

TAF KCRW 012322Z 0200/0224 VRB03KT P6SM BKN250 FM021300 21004KT P6SM SCT080 FM021500 25012G20KT P6SM SCT070